PWSweather.com
Personal Weather Stations
Station Observations
RIORANCHO
Corrales Heights, Rio Rancho, NM 87124

Corrales HeightsRio Rancho, NM 87124

Lat: 35.241928, Lon: -106.647095

Elevation: 5297

Station Type: Davis Vantage Pro 2 Plus

http://www.weatherriorancho.com

High Low Average
Temperature 59.2°F15.1°C 37.8°F3.2°C 48.4°F9.1°C
Dew Point 44.1°F6.7°C 16.4°F-8.7°C 24.6°F-4.1°C
Winds 5.8 mph 9.3 kmh Calm Calm Calm SWCalm SW
Wind Gusts 15.0 mph24.1 kmh -- 1.0 mph1.6 kmh
Humidity 89% 22% 43%
Pressure 30.22 in1023.4 mb 30.06 in1017.9 mb -
Precipitation 0.19 in4.8 mm - -
Hour Temp Dew Point Humidity Winds Wind Gusts Pressure Precip Precip Rate Daily Precip Total
12:00 AM 43.0°F6.1°C 16.5°F-8.6°C 34% Calm Calm -- 30.21 in1023.0 mb - 0.00 in0.0 mm 0.00 in0.0 mm
12:10 AM 42.8°F6.0°C 17.0°F-8.3°C 35% Calm Calm -- 30.21 in1023.0 mb - 0.00 in0.0 mm 0.00 in0.0 mm
12:20 AM 43.0°F6.1°C 17.2°F-8.2°C 35% Calm Calm -- 30.21 in1023.0 mb - 0.00 in0.0 mm 0.00 in0.0 mm
12:30 AM 44.2°F6.8°C 17.6°F-8.0°C 34% Calm Calm -- 30.21 in1023.0 mb - 0.00 in0.0 mm 0.00 in0.0 mm
12:40 AM 46.9°F8.3°C 17.8°F-7.9°C 31% Calm Calm -- 30.21 in1023.0 mb - 0.00 in0.0 mm 0.00 in0.0 mm
12:50 AM 47.4°F8.6°C 17.5°F-8.1°C 30% Calm Calm -- 30.21 in1023.0 mb - 0.00 in0.0 mm 0.00 in0.0 mm
01:00 AM 47.4°F8.6°C 17.5°F-8.1°C 30% Calm Calm 2.3 mph3.7 kmh 30.21 in1023.0 mb - 0.00 in0.0 mm 0.00 in0.0 mm
01:10 AM 47.3°F8.5°C 17.4°F-8.1°C 30% Calm Calm 2.3 mph3.7 kmh 30.21 in1023.0 mb - 0.00 in0.0 mm 0.00 in0.0 mm
01:20 AM 47.4°F8.6°C 17.5°F-8.1°C 30% Calm Calm 1.2 mph1.9 kmh 30.21 in1023.0 mb - 0.00 in0.0 mm 0.00 in0.0 mm
01:30 AM 47.3°F8.5°C 17.4°F-8.1°C 30% Calm Calm 2.3 mph3.7 kmh 30.21 in1023.0 mb - 0.00 in0.0 mm 0.00 in0.0 mm
01:40 AM 47.4°F8.6°C 17.5°F-8.1°C 30% Calm Calm 1.2 mph1.9 kmh 30.22 in1023.4 mb - 0.00 in0.0 mm 0.00 in0.0 mm
01:50 AM 47.7°F8.7°C 16.9°F-8.4°C 29% Calm Calm -- 30.21 in1023.0 mb - 0.00 in0.0 mm 0.00 in0.0 mm
02:00 AM 47.8°F8.8°C 17.1°F-8.3°C 29% Calm Calm 1.2 mph1.9 kmh 30.22 in1023.4 mb - 0.00 in0.0 mm 0.00 in0.0 mm
02:10 AM 47.7°F8.7°C 16.9°F-8.4°C 29% Calm Calm -- 30.22 in1023.4 mb - 0.00 in0.0 mm 0.00 in0.0 mm
02:20 AM 47.2°F8.4°C 17.3°F-8.2°C 30% Calm Calm -- 30.22 in1023.4 mb - 0.00 in0.0 mm 0.00 in0.0 mm
02:30 AM 46.8°F8.2°C 17.0°F-8.3°C 30% Calm Calm -- 30.22 in1023.4 mb - 0.00 in0.0 mm 0.00 in0.0 mm
02:40 AM 46.4°F8.0°C 17.4°F-8.1°C 31% Calm Calm -- 30.21 in1023.0 mb - 0.00 in0.0 mm 0.00 in0.0 mm
02:50 AM 46.1°F7.8°C 17.1°F-8.3°C 31% Calm Calm -- 30.22 in1023.4 mb - 0.00 in0.0 mm 0.00 in0.0 mm
03:00 AM 45.5°F7.5°C 16.6°F-8.6°C 31% Calm Calm 1.2 mph1.9 kmh 30.22 in1023.4 mb - 0.00 in0.0 mm 0.00 in0.0 mm
03:10 AM 44.8°F7.1°C 16.7°F-8.5°C 32% Calm Calm -- 30.22 in1023.4 mb - 0.00 in0.0 mm 0.00 in0.0 mm
03:20 AM 44.5°F6.9°C 16.4°F-8.7°C 32% Calm Calm -- 30.22 in1023.4 mb - 0.00 in0.0 mm 0.00 in0.0 mm
03:30 AM 44.2°F6.8°C 16.9°F-8.4°C 33% Calm Calm -- 30.22 in1023.4 mb - 0.00 in0.0 mm 0.00 in0.0 mm
03:40 AM 43.8°F6.6°C 16.5°F-8.6°C 33% Calm Calm -- 30.22 in1023.4 mb - 0.00 in0.0 mm 0.00 in0.0 mm
03:50 AM 43.4°F6.3°C 16.9°F-8.4°C 34% Calm Calm -- 30.21 in1023.0 mb - 0.00 in0.0 mm 0.00 in0.0 mm
04:00 AM 43.1°F6.2°C 16.6°F-8.6°C 34% Calm Calm -- 30.21 in1023.0 mb - 0.00 in0.0 mm 0.00 in0.0 mm
04:10 AM 42.9°F6.1°C 16.4°F-8.7°C 34% Calm Calm -- 30.21 in1023.0 mb - 0.00 in0.0 mm 0.00 in0.0 mm
04:20 AM 42.5°F5.8°C 16.7°F-8.5°C 35% Calm Calm -- 30.20 in1022.7 mb - 0.00 in0.0 mm 0.00 in0.0 mm
04:30 AM 42.2°F5.7°C 17.1°F-8.3°C 36% Calm Calm 1.2 mph1.9 kmh 30.20 in1022.7 mb - 0.00 in0.0 mm 0.00 in0.0 mm
04:40 AM 41.9°F5.5°C 16.9°F-8.4°C 36% Calm Calm -- 30.20 in1022.7 mb - 0.00 in0.0 mm 0.00 in0.0 mm
04:50 AM 41.5°F5.3°C 17.1°F-8.3°C 37% Calm Calm -- 30.19 in1022.4 mb - 0.00 in0.0 mm 0.00 in0.0 mm
05:00 AM 41.3°F5.2°C 17.6°F-8.0°C 38% Calm Calm -- 30.19 in1022.4 mb - 0.00 in0.0 mm 0.00 in0.0 mm
05:10 AM 41.2°F5.1°C 17.5°F-8.1°C 38% 1.2 mph S1.9 kmh S 2.3 mph3.7 kmh 30.19 in1022.4 mb - 0.00 in0.0 mm 0.00 in0.0 mm
05:20 AM 41.0°F5.0°C 17.3°F-8.2°C 38% Calm Calm 2.3 mph3.7 kmh 30.20 in1022.7 mb - 0.00 in0.0 mm 0.00 in0.0 mm
05:30 AM 40.9°F4.9°C 17.8°F-7.9°C 39% Calm Calm -- 30.20 in1022.7 mb - 0.00 in0.0 mm 0.00 in0.0 mm
05:40 AM 40.6°F4.8°C 17.5°F-8.1°C 39% Calm Calm -- 30.20 in1022.7 mb - 0.00 in0.0 mm 0.00 in0.0 mm
05:50 AM 40.4°F4.7°C 17.4°F-8.1°C 39% Calm Calm -- 30.20 in1022.7 mb - 0.00 in0.0 mm 0.00 in0.0 mm
06:00 AM 40.2°F4.6°C 17.8°F-7.9°C 40% Calm Calm -- 30.19 in1022.4 mb - 0.00 in0.0 mm 0.00 in0.0 mm
06:10 AM 40.0°F4.4°C 17.6°F-8.0°C 40% Calm Calm -- 30.19 in1022.4 mb - 0.00 in0.0 mm 0.00 in0.0 mm
06:20 AM 39.7°F4.3°C 18.5°F-7.5°C 42% Calm Calm -- 30.19 in1022.4 mb - 0.00 in0.0 mm 0.00 in0.0 mm
06:30 AM 39.6°F4.2°C 18.9°F-7.3°C 43% Calm Calm -- 30.20 in1022.7 mb - 0.00 in0.0 mm 0.00 in0.0 mm
06:40 AM 39.4°F4.1°C 18.8°F-7.3°C 43% Calm Calm -- 30.20 in1022.7 mb - 0.00 in0.0 mm 0.00 in0.0 mm
06:50 AM 39.0°F3.9°C 18.9°F-7.3°C 44% Calm Calm 1.2 mph1.9 kmh 30.19 in1022.4 mb - 0.00 in0.0 mm 0.00 in0.0 mm
07:00 AM 38.6°F3.7°C 18.5°F-7.5°C 44% Calm Calm -- 30.19 in1022.4 mb - 0.00 in0.0 mm 0.00 in0.0 mm
07:10 AM 38.4°F3.6°C 18.9°F-7.3°C 45% Calm Calm 1.2 mph1.9 kmh 30.19 in1022.4 mb - 0.00 in0.0 mm 0.00 in0.0 mm
07:20 AM 38.2°F3.4°C 18.7°F-7.4°C 45% Calm Calm 1.2 mph1.9 kmh 30.19 in1022.4 mb - 0.00 in0.0 mm 0.00 in0.0 mm
07:30 AM 37.9°F3.3°C 18.4°F-7.6°C 45% Calm Calm 1.2 mph1.9 kmh 30.19 in1022.4 mb - 0.00 in0.0 mm 0.00 in0.0 mm
07:40 AM 37.8°F3.2°C 18.8°F-7.3°C 46% Calm Calm 2.3 mph3.7 kmh 30.19 in1022.4 mb - 0.00 in0.0 mm 0.00 in0.0 mm
07:50 AM 38.0°F3.3°C 19.0°F-7.2°C 46% Calm Calm 1.2 mph1.9 kmh 30.19 in1022.4 mb - 0.00 in0.0 mm 0.00 in0.0 mm
08:00 AM 38.4°F3.6°C 19.4°F-7.0°C 46% Calm Calm 1.2 mph1.9 kmh 30.19 in1022.4 mb - 0.00 in0.0 mm 0.00 in0.0 mm
08:10 AM 38.8°F3.8°C 19.8°F-6.8°C 46% Calm Calm 1.2 mph1.9 kmh 30.20 in1022.7 mb - 0.00 in0.0 mm 0.00 in0.0 mm
08:20 AM 39.1°F3.9°C 19.6°F-6.9°C 45% Calm Calm -- 30.20 in1022.7 mb - 0.00 in0.0 mm 0.00 in0.0 mm
08:30 AM 39.8°F4.3°C 19.6°F-6.9°C 44% Calm Calm 1.2 mph1.9 kmh 30.20 in1022.7 mb - 0.00 in0.0 mm 0.00 in0.0 mm
08:40 AM 40.7°F4.8°C 19.9°F-6.7°C 43% Calm Calm 2.3 mph3.7 kmh 30.20 in1022.7 mb - 0.00 in0.0 mm 0.00 in0.0 mm
08:50 AM 41.6°F5.3°C 20.2°F-6.6°C 42% Calm Calm -- 30.20 in1022.7 mb - 0.00 in0.0 mm 0.00 in0.0 mm
09:00 AM 42.5°F5.8°C 20.4°F-6.4°C 41% Calm Calm -- 30.21 in1023.0 mb - 0.00 in0.0 mm 0.00 in0.0 mm
09:10 AM 43.2°F6.2°C 20.4°F-6.4°C 40% Calm Calm -- 30.21 in1023.0 mb - 0.00 in0.0 mm 0.00 in0.0 mm
09:20 AM 43.6°F6.4°C 20.2°F-6.6°C 39% Calm Calm -- 30.21 in1023.0 mb - 0.00 in0.0 mm 0.00 in0.0 mm
09:30 AM 44.0°F6.7°C 20.6°F-6.3°C 39% Calm Calm -- 30.22 in1023.4 mb - 0.00 in0.0 mm 0.00 in0.0 mm
09:40 AM 44.2°F6.8°C 20.8°F-6.2°C 39% Calm Calm -- 30.22 in1023.4 mb - 0.00 in0.0 mm 0.00 in0.0 mm
09:50 AM 44.3°F6.8°C 20.9°F-6.2°C 39% Calm Calm -- 30.22 in1023.4 mb - 0.00 in0.0 mm 0.00 in0.0 mm
10:00 AM 44.5°F6.9°C 21.0°F-6.1°C 39% Calm Calm -- 30.21 in1023.0 mb - 0.00 in0.0 mm 0.00 in0.0 mm
10:10 AM 44.5°F6.9°C 19.8°F-6.8°C 37% Calm Calm -- 30.21 in1023.0 mb - 0.00 in0.0 mm 0.00 in0.0 mm
10:20 AM 44.6°F7.0°C 19.9°F-6.7°C 37% Calm Calm -- 30.21 in1023.0 mb - 0.00 in0.0 mm 0.00 in0.0 mm
10:30 AM 45.3°F7.4°C 19.9°F-6.7°C 36% Calm Calm -- 30.20 in1022.7 mb - 0.00 in0.0 mm 0.00 in0.0 mm
10:40 AM 46.3°F7.9°C 20.1°F-6.6°C 35% Calm Calm -- 30.20 in1022.7 mb - 0.00 in0.0 mm 0.00 in0.0 mm
10:50 AM 47.8°F8.8°C 20.0°F-6.7°C 33% Calm Calm -- 30.20 in1022.7 mb - 0.00 in0.0 mm 0.00 in0.0 mm
11:00 AM 48.7°F9.3°C 20.1°F-6.6°C 32% Calm Calm -- 30.20 in1022.7 mb - 0.00 in0.0 mm 0.00 in0.0 mm
11:10 AM 50.1°F10.1°C 20.6°F-6.3°C 31% Calm Calm -- 30.21 in1023.0 mb - 0.00 in0.0 mm 0.00 in0.0 mm
11:20 AM 50.9°F10.5°C 20.5°F-6.4°C 30% Calm Calm -- 30.20 in1022.7 mb - 0.00 in0.0 mm 0.00 in0.0 mm
11:30 AM 51.7°F10.9°C 21.2°F-6.0°C 30% Calm Calm -- 30.20 in1022.7 mb - 0.00 in0.0 mm 0.00 in0.0 mm
11:40 AM 51.8°F11.0°C 21.3°F-5.9°C 30% Calm Calm -- 30.20 in1022.7 mb - 0.00 in0.0 mm 0.00 in0.0 mm
11:50 AM 52.4°F11.3°C 21.0°F-6.1°C 29% Calm Calm -- 30.20 in1022.7 mb - 0.00 in0.0 mm 0.00 in0.0 mm
12:00 PM 52.1°F11.2°C 20.8°F-6.2°C 29% Calm Calm -- 30.20 in1022.7 mb - 0.00 in0.0 mm 0.00 in0.0 mm
12:10 PM 52.7°F11.5°C 20.5°F-6.4°C 28% Calm Calm -- 30.19 in1022.4 mb - 0.00 in0.0 mm 0.00 in0.0 mm
12:20 PM 52.9°F11.6°C 20.6°F-6.3°C 28% Calm Calm -- 30.19 in1022.4 mb - 0.00 in0.0 mm 0.00 in0.0 mm
12:30 PM 53.0°F11.7°C 20.7°F-6.3°C 28% Calm Calm -- 30.19 in1022.4 mb - 0.00 in0.0 mm 0.00 in0.0 mm
12:40 PM 53.4°F11.9°C 21.1°F-6.1°C 28% Calm Calm -- 30.18 in1022.0 mb - 0.00 in0.0 mm 0.00 in0.0 mm
12:50 PM 53.7°F12.1°C 20.5°F-6.4°C 27% Calm Calm -- 30.17 in1021.7 mb - 0.00 in0.0 mm 0.00 in0.0 mm
01:00 PM 53.9°F12.2°C 20.6°F-6.3°C 27% Calm Calm -- 30.16 in1021.3 mb - 0.00 in0.0 mm 0.00 in0.0 mm
01:10 PM 53.9°F12.2°C 20.6°F-6.3°C 27% Calm Calm -- 30.16 in1021.3 mb - 0.00 in0.0 mm 0.00 in0.0 mm
01:20 PM 54.1°F12.3°C 20.8°F-6.2°C 27% Calm Calm -- 30.16 in1021.3 mb - 0.00 in0.0 mm 0.00 in0.0 mm
01:30 PM 54.3°F12.4°C 21.0°F-6.1°C 27% Calm Calm -- 30.15 in1021.0 mb - 0.00 in0.0 mm 0.00 in0.0 mm
01:40 PM 54.3°F12.4°C 21.0°F-6.1°C 27% Calm Calm -- 30.15 in1021.0 mb - 0.00 in0.0 mm 0.00 in0.0 mm
01:50 PM 54.7°F12.6°C 21.4°F-5.9°C 27% Calm Calm -- 30.14 in1020.7 mb - 0.00 in0.0 mm 0.00 in0.0 mm
02:00 PM 55.7°F13.2°C 21.3°F-5.9°C 26% Calm Calm -- 30.14 in1020.7 mb - 0.00 in0.0 mm 0.00 in0.0 mm
02:10 PM 55.9°F13.3°C 21.5°F-5.8°C 26% Calm Calm -- 30.13 in1020.3 mb - 0.00 in0.0 mm 0.00 in0.0 mm
02:20 PM 56.0°F13.3°C 20.6°F-6.3°C 25% Calm Calm -- 30.12 in1020.0 mb - 0.00 in0.0 mm 0.00 in0.0 mm
02:30 PM 55.9°F13.3°C 20.5°F-6.4°C 25% Calm Calm -- 30.12 in1020.0 mb - 0.00 in0.0 mm 0.00 in0.0 mm
02:40 PM 56.2°F13.4°C 19.8°F-6.8°C 24% Calm Calm -- 30.12 in1020.0 mb - 0.00 in0.0 mm 0.00 in0.0 mm
02:50 PM 56.0°F13.3°C 20.6°F-6.3°C 25% Calm Calm -- 30.11 in1019.6 mb - 0.00 in0.0 mm 0.00 in0.0 mm
03:00 PM 56.3°F13.5°C 19.9°F-6.7°C 24% Calm Calm -- 30.10 in1019.3 mb - 0.00 in0.0 mm 0.00 in0.0 mm
03:10 PM 56.3°F13.5°C 19.9°F-6.7°C 24% Calm Calm -- 30.09 in1019.0 mb - 0.00 in0.0 mm 0.00 in0.0 mm
03:20 PM 56.4°F13.6°C 20.0°F-6.7°C 24% Calm Calm -- 30.09 in1019.0 mb - 0.00 in0.0 mm 0.00 in0.0 mm
03:30 PM 56.5°F13.6°C 20.1°F-6.6°C 24% Calm Calm -- 30.09 in1019.0 mb - 0.00 in0.0 mm 0.00 in0.0 mm
03:40 PM 56.8°F13.8°C 20.4°F-6.4°C 24% Calm Calm -- 30.08 in1018.6 mb - 0.00 in0.0 mm 0.00 in0.0 mm
03:50 PM 57.4°F14.1°C 20.9°F-6.2°C 24% Calm Calm -- 30.07 in1018.3 mb - 0.00 in0.0 mm 0.00 in0.0 mm
04:00 PM 57.7°F14.3°C 21.1°F-6.1°C 24% Calm Calm -- 30.07 in1018.3 mb - 0.00 in0.0 mm 0.00 in0.0 mm
04:10 PM 58.1°F14.5°C 20.4°F-6.4°C 23% Calm Calm -- 30.07 in1018.3 mb - 0.00 in0.0 mm 0.00 in0.0 mm
04:20 PM 58.1°F14.5°C 20.4°F-6.4°C 23% Calm Calm -- 30.07 in1018.3 mb - 0.00 in0.0 mm 0.00 in0.0 mm
04:30 PM 58.2°F14.6°C 20.5°F-6.4°C 23% Calm Calm -- 30.07 in1018.3 mb - 0.00 in0.0 mm 0.00 in0.0 mm
04:40 PM 58.7°F14.8°C 20.9°F-6.2°C 23% Calm Calm -- 30.07 in1018.3 mb - 0.00 in0.0 mm 0.00 in0.0 mm
04:50 PM 59.2°F15.1°C 21.4°F-5.9°C 23% Calm Calm -- 30.07 in1018.3 mb - 0.00 in0.0 mm 0.00 in0.0 mm
05:00 PM 58.5°F14.7°C 19.8°F-6.8°C 22% Calm Calm -- 30.07 in1018.3 mb - 0.00 in0.0 mm 0.00 in0.0 mm
05:10 PM 58.6°F14.8°C 19.8°F-6.8°C 22% Calm Calm -- 30.06 in1017.9 mb - 0.00 in0.0 mm 0.00 in0.0 mm
05:20 PM 58.6°F14.8°C 19.8°F-6.8°C 22% Calm Calm 1.2 mph1.9 kmh 30.06 in1017.9 mb - 0.00 in0.0 mm 0.00 in0.0 mm
05:30 PM 58.5°F14.7°C 20.8°F-6.2°C 23% Calm Calm -- 30.07 in1018.3 mb - 0.00 in0.0 mm 0.00 in0.0 mm
05:40 PM 58.4°F14.7°C 20.7°F-6.3°C 23% Calm Calm -- 30.07 in1018.3 mb - 0.00 in0.0 mm 0.00 in0.0 mm
05:50 PM 58.2°F14.6°C 20.5°F-6.4°C 23% Calm Calm -- 30.07 in1018.3 mb - 0.00 in0.0 mm 0.00 in0.0 mm
06:00 PM 58.1°F14.5°C 20.4°F-6.4°C 23% Calm Calm -- 30.07 in1018.3 mb - 0.00 in0.0 mm 0.00 in0.0 mm
06:10 PM 58.1°F14.5°C 20.4°F-6.4°C 23% Calm Calm -- 30.07 in1018.3 mb - 0.00 in0.0 mm 0.00 in0.0 mm
06:20 PM 58.1°F14.5°C 24.3°F-4.3°C 27% 1.2 mph SSW1.9 kmh SSW 2.3 mph3.7 kmh 30.07 in1018.3 mb - 0.00 in0.0 mm 0.00 in0.0 mm
06:30 PM 57.2°F14.0°C 28.3°F-2.1°C 33% 1.2 mph S1.9 kmh S 3.5 mph5.6 kmh 30.06 in1017.9 mb - 0.00 in0.0 mm 0.00 in0.0 mm
06:40 PM 56.8°F13.8°C 28.7°F-1.8°C 34% 2.3 mph SW3.7 kmh SW 10.4 mph16.7 kmh 30.06 in1017.9 mb - 0.00 in0.0 mm 0.00 in0.0 mm
06:50 PM 56.8°F13.8°C 28.7°F-1.8°C 34% 1.2 mph S1.9 kmh S 2.3 mph3.7 kmh 30.07 in1018.3 mb - 0.00 in0.0 mm 0.00 in0.0 mm
07:00 PM 56.4°F13.6°C 28.3°F-2.1°C 34% Calm Calm -- 30.07 in1018.3 mb - 0.00 in0.0 mm 0.00 in0.0 mm
07:10 PM 55.6°F13.1°C 32.9°F0.5°C 42% 3.5 mph SW5.6 kmh SW 9.2 mph14.8 kmh 30.07 in1018.3 mb - 0.00 in0.0 mm 0.00 in0.0 mm
07:20 PM 55.0°F12.8°C 32.9°F0.5°C 43% 3.5 mph S5.6 kmh S 6.9 mph11.1 kmh 30.07 in1018.3 mb - 0.00 in0.0 mm 0.00 in0.0 mm
07:30 PM 54.6°F12.6°C 35.8°F2.1°C 49% 5.8 mph SW9.3 kmh SW 15.0 mph24.1 kmh 30.07 in1018.3 mb - 0.00 in0.0 mm 0.00 in0.0 mm
07:40 PM 53.8°F12.1°C 37.1°F2.8°C 53% 1.2 mph SW1.9 kmh SW 8.1 mph13.0 kmh 30.08 in1018.6 mb - 0.00 in0.0 mm 0.00 in0.0 mm
07:50 PM 53.3°F11.8°C 37.6°F3.1°C 55% 3.5 mph S5.6 kmh S 4.6 mph7.4 kmh 30.08 in1018.6 mb - 0.00 in0.0 mm 0.00 in0.0 mm
08:00 PM 52.7°F11.5°C 38.8°F3.8°C 59% Calm Calm 3.5 mph5.6 kmh 30.07 in1018.3 mb - 0.00 in0.0 mm 0.00 in0.0 mm
08:10 PM 52.7°F11.5°C 38.3°F3.5°C 58% 1.2 mph S1.9 kmh S 8.1 mph13.0 kmh 30.07 in1018.3 mb - 0.00 in0.0 mm 0.00 in0.0 mm
08:20 PM 52.3°F11.3°C 39.3°F4.1°C 61% 1.2 mph SSE1.9 kmh SSE 3.5 mph5.6 kmh 30.07 in1018.3 mb - 0.00 in0.0 mm 0.00 in0.0 mm
08:30 PM 51.9°F11.1°C 39.3°F4.1°C 62% 1.2 mph S1.9 kmh S 3.5 mph5.6 kmh 30.07 in1018.3 mb - 0.01 in0.3 mm 0.01 in0.3 mm
08:40 PM 51.4°F10.8°C 40.4°F4.7°C 66% Calm Calm 2.3 mph3.7 kmh 30.07 in1018.3 mb - 0.00 in0.0 mm 0.01 in0.3 mm
08:50 PM 51.6°F10.9°C 40.2°F4.6°C 65% 1.2 mph S1.9 kmh S 3.5 mph5.6 kmh 30.07 in1018.3 mb - 0.00 in0.0 mm 0.01 in0.3 mm
09:00 PM 51.2°F10.7°C 41.0°F5.0°C 68% Calm Calm 4.6 mph7.4 kmh 30.07 in1018.3 mb - 0.00 in0.0 mm 0.01 in0.3 mm
09:10 PM 49.8°F9.9°C 41.9°F5.5°C 74% 1.2 mph SE1.9 kmh SE 3.5 mph5.6 kmh 30.07 in1018.3 mb - 0.00 in0.0 mm 0.01 in0.3 mm
09:20 PM 49.0°F9.4°C 42.8°F6.0°C 79% Calm Calm -- 30.08 in1018.6 mb - 0.00 in0.0 mm 0.01 in0.3 mm
09:30 PM 48.5°F9.2°C 43.3°F6.3°C 82% 2.3 mph SE3.7 kmh SE 3.5 mph5.6 kmh 30.08 in1018.6 mb - 0.01 in0.3 mm 0.02 in0.5 mm
09:40 PM 48.2°F9.0°C 43.6°F6.4°C 84% Calm Calm -- 30.09 in1019.0 mb - 0.00 in0.0 mm 0.02 in0.5 mm
09:50 PM 48.1°F8.9°C 43.8°F6.6°C 85% Calm Calm 1.2 mph1.9 kmh 30.09 in1019.0 mb - 0.01 in0.3 mm 0.03 in0.8 mm
10:00 PM 47.9°F8.8°C 43.9°F6.6°C 86% Calm Calm -- 30.09 in1019.0 mb - 0.01 in0.3 mm 0.04 in1.0 mm
10:10 PM 47.8°F8.8°C 44.1°F6.7°C 87% Calm Calm -- 30.09 in1019.0 mb - 0.00 in0.0 mm 0.04 in1.0 mm
10:20 PM 46.8°F8.2°C 42.5°F5.8°C 85% 2.3 mph WNW3.7 kmh WNW 5.8 mph9.3 kmh 30.10 in1019.3 mb - 0.01 in0.3 mm 0.05 in1.3 mm
10:30 PM 45.6°F7.6°C 40.4°F4.7°C 82% Calm Calm 1.2 mph1.9 kmh 30.10 in1019.3 mb - 0.01 in0.3 mm 0.06 in1.5 mm
10:40 PM 44.8°F7.1°C 40.0°F4.4°C 83% 1.2 mph WNW1.9 kmh WNW 9.2 mph14.8 kmh 30.10 in1019.3 mb - 0.03 in0.8 mm 0.09 in2.3 mm
10:50 PM 44.2°F6.8°C 39.7°F4.3°C 84% 1.2 mph WNW1.9 kmh WNW 4.6 mph7.4 kmh 30.10 in1019.3 mb - 0.01 in0.3 mm 0.09 in2.3 mm
11:00 PM 44.0°F6.7°C 39.7°F4.3°C 85% Calm Calm 3.5 mph5.6 kmh 30.10 in1019.3 mb - 0.02 in0.5 mm 0.11 in2.8 mm
11:10 PM 43.6°F6.4°C 39.4°F4.1°C 85% 5.8 mph WNW9.3 kmh WNW 8.1 mph13.0 kmh 30.11 in1019.6 mb - 0.00 in0.0 mm 0.11 in2.8 mm
11:20 PM 43.4°F6.3°C 39.5°F4.2°C 86% 3.5 mph WNW5.6 kmh WNW 5.8 mph9.3 kmh 30.10 in1019.3 mb - 0.02 in0.5 mm 0.13 in3.3 mm
11:30 PM 43.3°F6.3°C 39.4°F4.1°C 86% 1.2 mph WNW1.9 kmh WNW 4.6 mph7.4 kmh 30.11 in1019.6 mb - 0.01 in0.3 mm 0.13 in3.3 mm
11:40 PM 43.1°F6.2°C 39.5°F4.2°C 87% 5.8 mph WNW9.3 kmh WNW 6.9 mph11.1 kmh 30.11 in1019.6 mb - 0.01 in0.3 mm 0.14 in3.6 mm
11:50 PM 43.0°F6.1°C 39.4°F4.1°C 87% 2.3 mph WNW3.7 kmh WNW 4.6 mph7.4 kmh 30.11 in1019.6 mb - 0.01 in0.3 mm 0.15 in3.8 mm